Time;durP1;ratioP1;P1;durP2;ratioP2;P2;SDS_P1;SDS_P2;PMS_P1;PMS_P2;Temp;Humidity;BMP_temperature;BMP_pressure;BME280_temperature;BME280_humidity;BME280_pressure;Samples;Min_cycle;Max_cycle;Signal;HPM_P1;HPM_P2
2022/09/28 00:02:15;;;;;;;28.10;14.02;;;;;;;5.90;100.00;99460.06;5138587;27;20023;-88
2022/09/28 00:04:41;;;;;;;30.30;14.45;;;;;;;5.94;100.00;99466.69;5158119;27;20035;-88
2022/09/28 00:07:07;;;;;;;28.00;14.33;;;;;;;5.96;100.00;99462.72;5123024;27;20482;-88
2022/09/28 00:09:32;;;;;;;30.02;15.15;;;;;;;6.02;100.00;99469.13;5139682;27;20046;-87
2022/09/28 00:12:00;;;;;;;30.27;14.77;;;;;;;6.07;100.00;99463.91;5139763;27;20026;-88
2022/09/28 00:14:32;;;;;;;34.85;17.25;;;;;;;6.09;100.00;99461.81;5158377;27;20027;-87
2022/09/28 00:17:00;;;;;;;35.15;15.63;;;;;;;6.12;100.00;99464.06;5139664;27;20022;-88
2022/09/28 00:19:29;;;;;;;37.25;17.05;;;;;;;6.14;100.00;99458.44;5139227;27;20373;-88
2022/09/28 00:21:54;;;;;;;33.67;16.47;;;;;;;6.14;100.00;99450.38;5139424;27;20026;-87
2022/09/28 00:24:20;;;;;;;37.33;16.48;;;;;;;6.15;100.00;99444.75;5139436;27;20078;-87
2022/09/28 00:26:55;;;;;;;37.70;16.90;;;;;;;6.16;100.00;99440.22;5139645;27;20471;-88
2022/09/28 00:29:22;;;;;;;33.78;16.30;;;;;;;6.19;100.00;99450.56;5139166;27;20121;-87
2022/09/28 00:31:49;;;;;;;34.60;16.85;;;;;;;6.15;100.00;99446.66;5157866;27;20031;-87
2022/09/28 00:34:24;;;;;;;38.80;17.83;;;;;;;6.13;100.00;99444.19;5139154;27;20142;-88
2022/09/28 00:36:50;;;;;;;36.45;16.85;;;;;;;6.17;100.00;99438.34;5140139;27;20030;-87
2022/09/28 00:39:21;;;;;;;32.63;16.92;;;;;;;6.19;100.00;99442.47;5121765;27;20071;-88
2022/09/28 00:41:46;;;;;;;41.30;18.02;;;;;;;6.19;100.00;99439.78;5139671;27;20057;-88
2022/09/28 00:44:41;;;;;;;38.38;17.80;;;;;;;6.15;100.00;99434.00;5157298;27;20050;-88
2022/09/28 00:47:48;;;;;;;39.80;17.87;;;;;;;6.13;100.00;99430.72;5109081;27;20060;-88
2022/09/28 00:50:29;;;;;;;33.35;16.23;;;;;;;6.10;100.00;99428.47;5158113;27;20030;-88
2022/09/28 00:53:24;;;;;;;34.92;17.77;;;;;;;6.12;100.00;99433.63;5157826;27;20084;-89
2022/09/28 00:55:52;;;;;;;45.92;18.17;;;;;;;6.14;100.00;99428.81;5136174;27;20488;-88
2022/09/28 00:58:26;;;;;;;37.72;17.88;;;;;;;6.13;100.00;99425.31;5138997;27;20031;-88
2022/09/28 01:00:53;;;;;;;39.53;18.17;;;;;;;6.15;100.00;99420.53;5138749;27;20047;-88
2022/09/28 01:03:19;;;;;;;38.00;18.52;;;;;;;6.19;100.00;99412.03;5138653;27;20027;-88
2022/09/28 01:05:47;;;;;;;44.72;19.80;;;;;;;6.18;100.00;99408.50;5139507;27;20434;-88
2022/09/28 01:08:18;;;;;;;38.40;18.88;;;;;;;6.21;100.00;99413.44;5138587;27;20474;-88
2022/09/28 01:10:50;;;;;;;43.10;19.35;;;;;;;6.22;100.00;99408.91;5138349;27;20069;-88
2022/09/28 01:13:18;;;;;;;38.85;18.83;;;;;;;6.24;100.00;99413.00;5138326;27;20423;-88
2022/09/28 01:16:02;;;;;;;43.67;19.85;;;;;;;6.23;100.00;99422.13;5138603;27;20075;-88
2022/09/28 01:18:38;;;;;;;47.22;20.30;;;;;;;6.24;100.00;99414.88;5156748;27;20030;-87
2022/09/28 01:21:25;;;;;;;44.15;20.48;;;;;;;6.26;100.00;99424.38;5157770;27;20362;-87
2022/09/28 01:24:16;;;;;;;48.42;20.67;;;;;;;6.27;100.00;99434.09;5138606;27;20030;-88
2022/09/28 01:26:53;;;;;;;42.45;19.58;;;;;;;6.29;100.00;99426.63;5138281;27;20035;-87
2022/09/28 01:29:36;;;;;;;41.92;19.83;;;;;;;6.32;100.00;99426.19;5157101;27;20027;-88
2022/09/28 01:32:44;;;;;;;45.20;21.33;;;;;;;6.35;100.00;99429.47;5156618;27;20082;-88
2022/09/28 01:35:32;;;;;;;46.50;20.38;;;;;;;6.34;100.00;99417.88;5116495;27;20040;-88
2022/09/28 01:38:06;;;;;;;41.40;21.23;;;;;;;6.36;100.00;99428.44;5137221;27;20035;-87
2022/09/28 01:40:35;;;;;;;50.63;21.67;;;;;;;6.37;100.00;99422.81;5138760;27;20557;-88
2022/09/28 01:43:08;;;;;;;53.15;23.02;;;;;;;6.39;100.00;99430.69;5137987;27;20066;-87
2022/09/28 01:45:44;;;;;;;47.65;22.42;;;;;;;6.42;100.00;99438.31;5138217;27;20034;-88
2022/09/28 01:48:15;;;;;;;52.97;22.73;;;;;;;6.43;100.00;99431.88;5138124;27;20019;-86
2022/09/28 01:50:44;;;;;;;56.20;23.98;;;;;;;6.49;100.00;99445.28;5138579;27;20331;-87
2022/09/28 01:53:20;;;;;;;57.45;24.83;;;;;;;6.51;100.00;99450.47;5156281;27;20031;-87
2022/09/28 01:55:50;;;;;;;58.88;24.55;;;;;;;6.52;100.00;99440.50;5137887;27;20026;-87
2022/09/28 01:58:32;;;;;;;64.10;25.40;;;;;;;6.56;100.00;99444.41;5137719;27;20027;-88
2022/09/28 02:01:12;;;;;;;60.63;24.92;;;;;;;6.56;100.00;99441.72;5137357;27;20058;-89
2022/09/28 02:03:49;;;;;;;62.80;26.85;;;;;;;6.56;100.00;99431.75;5137945;27;20023;-88
2022/09/28 02:06:20;;;;;;;54.05;24.92;;;;;;;6.57;100.00;99440.66;5137772;27;20091;-88
2022/09/28 02:08:53;;;;;;;54.20;24.83;;;;;;;6.58;100.00;99431.53;5137599;27;20026;-88
2022/09/28 02:11:21;;;;;;;46.15;21.65;;;;;;;6.56;100.00;99428.25;5137467;27;20023;-88
2022/09/28 02:14:04;;;;;;;47.42;21.73;;;;;;;6.55;100.00;99430.09;5137438;27;20034;-88
2022/09/28 02:16:37;;;;;;;51.67;22.08;;;;;;;6.55;100.00;99435.47;5137597;27;20023;-88
2022/09/28 02:19:06;;;;;;;48.63;20.33;;;;;;;6.50;100.00;99430.75;5136523;27;20038;-88
2022/09/28 02:21:42;;;;;;;43.50;19.13;;;;;;;6.46;100.00;99431.44;5155421;27;20038;-88
2022/09/28 02:24:23;;;;;;;35.17;18.55;;;;;;;6.37;100.00;99424.69;5136718;27;20371;-88
2022/09/28 02:26:54;;;;;;;37.45;17.52;;;;;;;6.31;100.00;99427.22;5137160;27;20052;-88
2022/09/28 02:29:19;;;;;;;33.97;16.45;;;;;;;6.27;100.00;99427.88;5136819;27;20113;-88
2022/09/28 02:31:45;;;;;;;39.97;16.03;;;;;;;6.23;100.00;99430.22;5137898;27;20069;-88
2022/09/28 02:34:10;;;;;;;29.63;15.07;;;;;;;6.15;100.00;99434.00;5155485;27;20026;-88
2022/09/28 02:36:36;;;;;;;35.20;14.93;;;;;;;6.12;100.00;99431.75;5137234;27;20505;-88
2022/09/28 02:39:02;;;;;;;33.33;14.70;;;;;;;6.12;100.00;99430.94;5136991;27;20144;-88
2022/09/28 02:41:58;;;;;;;29.73;14.30;;;;;;;6.11;100.00;99426.59;5136911;27;20019;-87
2022/09/28 02:44:45;;;;;;;30.15;14.32;;;;;;;6.09;100.00;99428.69;5137468;27;20076;-88
2022/09/28 02:47:32;;;;;;;26.60;13.80;;;;;;;6.05;100.00;99425.59;5136885;27;20031;-88
2022/09/28 02:50:21;;;;;;;33.15;14.23;;;;;;;6.00;100.00;99428.13;5137079;27;20470;-88
2022/09/28 02:53:21;;;;;;;27.15;13.27;;;;;;;5.96;100.00;99433.13;5098484;27;20035;-88
2022/09/28 02:56:23;;;;;;;29.08;11.77;;;;;;;5.92;100.00;99439.13;5136546;27;20052;-87
2022/09/28 02:58:49;;;;;;;23.33;11.77;;;;;;;5.92;100.00;99436.44;5136474;27;20068;-88
2022/09/28 03:01:36;;;;;;;28.40;12.27;;;;;;;5.96;100.00;99435.81;5136570;27;20416;-88
2022/09/28 03:04:07;;;;;;;26.90;12.40;;;;;;;5.91;100.00;99441.00;5137273;27;20034;-87
2022/09/28 03:06:55;;;;;;;24.85;11.57;;;;;;;5.91;100.00;99440.19;5136058;27;20027;-88
2022/09/28 03:09:35;;;;;;;25.20;11.70;;;;;;;5.90;100.00;99442.03;5136983;27;20394;-88
2022/09/28 03:12:08;;;;;;;25.57;11.40;;;;;;;5.92;100.00;99442.66;5137619;27;20050;-88
2022/09/28 03:14:34;;;;;;;24.63;11.70;;;;;;;5.91;100.00;99435.63;5136991;27;20070;-88
2022/09/28 03:17:03;;;;;;;20.48;10.65;;;;;;;5.93;100.00;99441.59;5136314;27;20019;-88
2022/09/28 03:19:33;;;;;;;20.90;10.50;;;;;;;5.94;100.00;99437.88;5155168;27;20018;-88
2022/09/28 03:22:06;;;;;;;25.85;10.18;;;;;;;5.97;100.00;99437.47;5136859;27;20451;-88
2022/09/28 03:24:32;;;;;;;20.98;10.02;;;;;;;6.00;100.00;99435.41;5136847;27;20440;-88
2022/09/28 03:26:57;;;;;;;21.13;9.70;;;;;;;5.99;100.00;99445.31;5136241;27;20058;-88
2022/09/28 03:29:33;;;;;;;20.67;9.57;;;;;;;5.97;100.00;99437.47;5119427;27;20118;-88
2022/09/28 03:31:58;;;;;;;19.60;8.98;;;;;;;5.97;100.00;99432.09;5137448;27;20283;-88
2022/09/28 03:34:24;;;;;;;23.33;9.50;;;;;;;5.99;100.00;99434.56;5137063;27;20432;-88
2022/09/28 03:36:49;;;;;;;18.30;8.70;;;;;;;5.97;100.00;99442.03;5122473;27;20053;-88
2022/09/28 03:39:15;;;;;;;16.47;8.67;;;;;;;5.95;100.00;99442.22;5140889;27;20458;-88
2022/09/28 03:41:40;;;;;;;16.13;8.67;;;;;;;5.94;100.00;99432.50;5139969;27;20045;-88
2022/09/28 03:44:06;;;;;;;17.57;8.23;;;;;;;5.92;100.00;99433.75;5140864;27;20183;-88
2022/09/28 03:46:31;;;;;;;17.40;8.20;;;;;;;5.89;100.00;99439.56;5140732;27;20147;-87
2022/09/28 03:48:59;;;;;;;18.97;7.83;;;;;;;5.90;100.00;99447.44;5139837;27;20450;-88
2022/09/28 03:51:28;;;;;;;21.58;8.27;;;;;;;5.91;100.00;99450.97;5139685;27;20033;-88
2022/09/28 03:53:56;;;;;;;18.83;8.10;;;;;;;5.90;100.00;99442.03;5158294;27;20053;-88
2022/09/28 03:56:21;;;;;;;19.70;7.70;;;;;;;5.88;100.00;99451.41;5139691;27;20027;-88
2022/09/28 03:58:50;;;;;;;13.23;7.07;;;;;;;5.86;100.00;99445.41;5139773;27;20027;-89
2022/09/28 04:01:18;;;;;;;18.48;6.97;;;;;;;5.83;100.00;99443.16;5139842;27;20031;-88
2022/09/28 04:03:54;;;;;;;14.88;7.10;;;;;;;5.82;100.00;99442.34;5122806;27;20038;-88
2022/09/28 04:06:20;;;;;;;15.50;6.43;;;;;;;5.89;100.00;99451.19;5140213;27;20046;-88
2022/09/28 04:08:45;;;;;;;12.70;6.30;;;;;;;5.87;100.00;99447.06;5139723;27;20390;-88
2022/09/28 04:11:11;;;;;;;19.90;6.50;;;;;;;5.88;100.00;99446.84;5139498;27;20027;-88
2022/09/28 04:13:37;;;;;;;17.33;5.57;;;;;;;5.91;100.00;99459.03;5139532;27;20031;-88
2022/09/28 04:16:03;;;;;;;14.47;5.57;;;;;;;5.97;100.00;99447.44;5139614;27;20054;-88
2022/09/28 04:18:32;;;;;;;19.65;5.53;;;;;;;6.01;100.00;99445.09;5139520;27;20027;-89
2022/09/28 04:21:03;;;;;;;12.85;4.90;;;;;;;6.02;100.00;99444.88;5158510;27;20034;-89
2022/09/28 04:23:37;;;;;;;9.02;4.57;;;;;;;6.04;100.00;99442.81;5158807;27;20450;-88
2022/09/28 04:26:15;;;;;;;9.50;4.65;;;;;;;6.05;100.00;99449.00;5139162;27;20027;-88
2022/09/28 04:31:26;;;;;;;10.48;4.18;;;;;;;6.02;100.00;99439.50;5158537;27;20095;-87
2022/09/28 04:33:52;;;;;;;9.07;3.83;;;;;;;5.99;100.00;99439.94;5139816;27;20031;-88
2022/09/28 04:36:18;;;;;;;7.60;3.50;;;;;;;6.00;100.00;99440.78;5139013;27;20027;-88
2022/09/28 04:38:44;;;;;;;9.43;4.00;;;;;;;6.00;100.00;99438.09;5157834;27;20109;-88
2022/09/28 04:41:14;;;;;;;5.73;3.70;;;;;;;5.98;100.00;99430.22;5139201;27;20438;-87
2022/09/28 04:43:40;;;;;;;14.93;4.30;;;;;;;5.96;100.00;99432.28;5139428;27;20022;-88
2022/09/28 04:46:05;;;;;;;9.67;3.60;;;;;;;5.94;100.00;99432.50;5139235;27;20363;-87
2022/09/28 04:48:31;;;;;;;6.25;3.78;;;;;;;5.91;100.00;99437.50;5138676;27;20083;-87
2022/09/28 04:50:58;;;;;;;9.32;4.40;;;;;;;5.90;100.00;99438.53;5157687;27;20038;-87
2022/09/28 04:53:26;;;;;;;8.75;4.13;;;;;;;5.87;100.00;99452.44;5138809;27;20027;-88
2022/09/28 04:56:09;;;;;;;5.93;3.42;;;;;;;5.80;100.00;99449.78;5139476;27;20034;-87
2022/09/28 04:58:35;;;;;;;7.50;3.47;;;;;;;5.72;100.00;99445.50;5138962;27;20031;-87
2022/09/28 05:01:06;;;;;;;8.73;3.30;;;;;;;5.67;100.00;99453.41;5138473;27;20039;-87
2022/09/28 05:03:32;;;;;;;6.95;3.47;;;;;;;5.63;100.00;99454.88;5138997;27;20026;-87
2022/09/28 05:05:58;;;;;;;7.68;3.47;;;;;;;5.59;100.00;99459.84;5138662;27;20022;-87
2022/09/28 05:08:25;;;;;;;7.00;3.50;;;;;;;5.56;100.00;99456.78;5138494;27;20036;-86
2022/09/28 05:10:59;;;;;;;10.35;3.35;;;;;;;5.50;100.00;99460.34;5138330;27;20138;-86
2022/09/28 05:13:25;;;;;;;7.13;3.13;;;;;;;5.48;100.00;99449.81;5138741;27;20018;-85
2022/09/28 05:15:53;;;;;;;9.88;4.05;;;;;;;5.51;100.00;99460.13;5138477;27;20524;-86
2022/09/28 05:18:18;;;;;;;5.40;3.55;;;;;;;5.55;100.00;99465.91;5138303;27;20097;-85
2022/09/28 05:20:44;;;;;;;11.20;4.30;;;;;;;5.56;100.00;99459.47;5138086;27;20033;-86
2022/09/28 05:23:11;;;;;;;9.07;3.93;;;;;;;5.52;100.00;99467.16;5138098;27;20026;-86
2022/09/28 05:25:37;;;;;;;11.77;4.60;;;;;;;5.50;100.00;99460.34;5156559;27;20023;-86
2022/09/28 05:28:03;;;;;;;12.68;5.20;;;;;;;5.49;100.00;99464.06;5121047;27;20087;-86
2022/09/28 05:30:29;;;;;;;13.47;4.73;;;;;;;5.48;100.00;99465.09;5138408;27;20030;-86
2022/09/28 05:32:54;;;;;;;12.00;5.70;;;;;;;5.50;100.00;99471.09;5156688;27;20289;-86
2022/09/28 05:35:20;;;;;;;15.30;6.60;;;;;;;5.53;100.00;99465.28;5138341;27;20026;-86
2022/09/28 05:37:46;;;;;;;10.40;6.00;;;;;;;5.55;100.00;99458.66;5121079;27;20522;-86
2022/09/28 05:40:12;;;;;;;14.93;6.72;;;;;;;5.56;100.00;99454.91;5120838;27;20034;-86
2022/09/28 05:42:40;;;;;;;21.98;7.70;;;;;;;5.58;100.00;99460.91;5137813;27;20039;-86
2022/09/28 05:45:09;;;;;;;18.13;7.40;;;;;;;5.58;100.00;99457.38;5157038;27;20034;-86
2022/09/28 05:47:39;;;;;;;15.70;8.00;;;;;;;5.60;100.00;99453.44;5156015;27;20034;-86
2022/09/28 05:50:15;;;;;;;17.85;7.95;;;;;;;5.60;100.00;99453.44;5121119;27;20139;-86
2022/09/28 05:52:43;;;;;;;16.27;8.02;;;;;;;5.63;100.00;99466.47;5137710;27;20528;-86
2022/09/28 05:55:09;;;;;;;17.83;8.27;;;;;;;5.66;100.00;99472.47;5120725;27;20381;-86
2022/09/28 05:57:34;;;;;;;21.13;8.60;;;;;;;5.68;100.00;99468.50;5137763;27;20035;-86
2022/09/28 06:00:03;;;;;;;20.90;8.90;;;;;;;5.69;100.00;99472.03;5137110;27;20047;-86
2022/09/28 06:02:28;;;;;;;20.40;9.23;;;;;;;5.66;100.00;99465.22;5104086;27;20035;-85
2022/09/28 06:04:54;;;;;;;22.90;8.90;;;;;;;5.64;100.00;99478.06;5137419;27;20019;-86
2022/09/28 06:07:20;;;;;;;22.27;9.98;;;;;;;5.62;100.00;99474.75;5137513;27;20466;-85
2022/09/28 06:09:46;;;;;;;21.80;9.70;;;;;;;5.61;100.00;99468.56;5120211;27;20466;-86
2022/09/28 06:12:14;;;;;;;25.80;9.80;;;;;;;5.62;100.00;99480.13;5137120;27;20030;-85
2022/09/28 06:14:40;;;;;;;26.30;9.83;;;;;;;5.61;100.00;99476.63;5137541;27;20019;-86
2022/09/28 06:17:06;;;;;;;22.45;10.55;;;;;;;5.60;100.00;99483.03;5136775;27;20039;-85
2022/09/28 06:19:31;;;;;;;20.83;10.03;;;;;;;5.57;100.00;99486.16;5137529;27;20023;-85
2022/09/28 06:21:57;;;;;;;23.13;10.60;;;;;;;5.56;100.00;99486.38;5119912;27;20027;-86
2022/09/28 06:24:22;;;;;;;23.05;11.45;;;;;;;5.54;100.00;99489.28;5120133;27;20034;-85
2022/09/28 06:26:47;;;;;;;30.23;12.73;;;;;;;5.52;100.00;99483.31;5136746;27;20470;-86
2022/09/28 06:29:18;;;;;;;32.17;12.23;;;;;;;5.54;100.00;99488.47;5119689;27;20030;-85
2022/09/28 06:31:44;;;;;;;27.70;12.35;;;;;;;5.55;100.00;99487.41;5136959;27;20075;-85
2022/09/28 06:34:11;;;;;;;36.83;14.38;;;;;;;5.56;100.00;99483.69;5136599;27;20054;-86
2022/09/28 06:36:37;;;;;;;30.87;13.63;;;;;;;5.59;100.00;99488.63;5155233;27;20027;-85
2022/09/28 06:39:05;;;;;;;31.45;14.68;;;;;;;5.59;100.00;99494.03;5120387;27;20079;-86
2022/09/28 06:41:31;;;;;;;35.67;15.75;;;;;;;5.61;100.00;99494.66;5155408;27;20023;-85
2022/09/28 06:43:56;;;;;;;43.30;15.93;;;;;;;5.66;100.00;99496.69;5137054;27;20394;-85
2022/09/28 06:46:22;;;;;;;40.25;16.98;;;;;;;5.69;100.00;99505.13;5119488;27;20027;-85
2022/09/28 06:48:48;;;;;;;38.72;16.15;;;;;;;5.71;100.00;99508.44;5136665;27;20095;-86
2022/09/28 06:51:17;;;;;;;38.03;16.50;;;;;;;5.76;100.00;99503.25;5136294;27;20026;-86
2022/09/28 06:53:42;;;;;;;34.70;16.30;;;;;;;5.80;100.00;99504.47;5136477;27;20027;-85
2022/09/28 06:56:09;;;;;;;43.10;17.27;;;;;;;5.86;100.00;99507.31;5136359;27;20038;-85
2022/09/28 06:58:35;;;;;;;42.05;17.27;;;;;;;5.92;100.00;99506.44;5119509;27;20113;-85
2022/09/28 07:01:01;;;;;;;42.83;16.45;;;;;;;6.00;100.00;99510.78;5133356;28;20051;-86
2022/09/28 07:03:26;;;;;;;45.95;17.92;;;;;;;6.07;100.00;99509.69;5133455;28;20038;-86
2022/09/28 07:05:54;;;;;;;41.40;17.45;;;;;;;6.20;100.00;99516.00;5133175;28;20035;-85
2022/09/28 07:08:25;;;;;;;47.13;16.50;;;;;;;6.35;100.00;99518.38;5133597;28;20053;-85
2022/09/28 07:10:55;;;;;;;45.55;17.67;;;;;;;6.44;100.00;99522.47;5134987;27;20072;-87
2022/09/28 07:13:22;;;;;;;36.90;16.63;;;;;;;6.50;100.00;99517.00;5138707;27;20097;-86
2022/09/28 07:15:47;;;;;;;47.08;17.67;;;;;;;6.62;100.00;99521.66;5137397;27;20074;-86
2022/09/28 07:18:12;;;;;;;45.60;17.27;;;;;;;6.70;100.00;99525.94;5137538;27;20122;-86
2022/09/28 07:20:38;;;;;;;39.67;16.00;;;;;;;6.73;100.00;99515.56;5137099;27;20019;-86
2022/09/28 07:23:07;;;;;;;41.70;15.83;;;;;;;6.79;100.00;99521.91;5137088;27;20381;-86
2022/09/28 07:25:34;;;;;;;41.17;15.55;;;;;;;6.77;100.00;99524.81;5137501;27;20046;-86
2022/09/28 07:28:01;;;;;;;34.10;14.38;;;;;;;6.79;100.00;99528.13;5137183;27;20035;-87
2022/09/28 07:30:32;;;;;;;31.95;14.65;;;;;;;6.79;100.00;99533.53;5137797;27;20068;-86
2022/09/28 07:32:59;;;;;;;33.63;14.50;;;;;;;6.80;100.00;99532.47;5136951;27;20031;-86
2022/09/28 07:35:25;;;;;;;30.20;13.17;;;;;;;6.81;100.00;99536.00;5136868;27;20023;-86
2022/09/28 07:38:07;;;;;;;27.88;12.43;;;;;;;6.82;100.00;99540.31;5136958;27;20073;-86
2022/09/28 07:43:19;;;;;;;25.15;12.80;;;;;;;6.90;100.00;99539.22;5138756;27;20379;-87
2022/09/28 07:45:52;;;;;;;32.05;13.65;;;;;;;6.96;100.00;99543.72;5136248;27;20136;-86
2022/09/28 07:48:19;;;;;;;26.67;13.35;;;;;;;6.99;100.00;99535.19;5137580;27;20075;-86
2022/09/28 07:50:50;;;;;;;30.70;14.05;;;;;;;7.08;100.00;99539.22;5137132;27;20046;-87
2022/09/28 07:53:16;;;;;;;28.27;13.13;;;;;;;7.09;100.00;99532.78;5136616;27;20023;-86
2022/09/28 07:55:48;;;;;;;30.73;13.93;;;;;;;7.15;100.00;99545.38;5119664;27;20109;-87
2022/09/28 07:58:18;;;;;;;22.33;12.65;;;;;;;7.22;100.00;99548.00;5137904;27;20110;-86
2022/09/28 08:00:46;;;;;;;28.58;13.32;;;;;;;7.28;100.00;99548.97;5119269;27;20047;-86
2022/09/28 08:03:11;;;;;;;28.70;13.35;;;;;;;7.34;100.00;99548.09;5120119;27;20109;-86
2022/09/28 08:05:37;;;;;;;20.83;12.80;;;;;;;7.31;100.00;99540.44;5119236;27;20155;-87
2022/09/28 08:08:03;;;;;;;26.27;12.27;;;;;;;7.37;100.00;99544.94;5136445;27;20102;-86
2022/09/28 08:10:28;;;;;;;21.57;11.90;;;;;;;7.41;100.00;99551.53;5137069;27;20065;-87
2022/09/28 08:13:02;;;;;;;23.63;12.00;;;;;;;7.45;100.00;99558.09;5118980;27;20588;-87
2022/09/28 08:15:31;;;;;;;23.23;11.85;;;;;;;7.49;100.00;99553.09;5136255;27;20019;-87
2022/09/28 08:17:57;;;;;;;27.10;12.07;;;;;;;7.52;100.00;99558.84;5119496;27;20027;-86
2022/09/28 08:23:08;;;;;;;17.43;9.80;;;;;;;7.65;100.00;99559.75;5135179;27;20096;-87
2022/09/28 08:25:37;;;;;;;19.75;11.88;;;;;;;7.69;100.00;99564.47;5119106;27;20037;-87
2022/09/28 08:28:09;;;;;;;22.02;12.00;;;;;;;7.75;100.00;99568.13;5136199;27;20049;-87
2022/09/28 08:30:34;;;;;;;19.83;12.13;;;;;;;7.86;100.00;99571.91;5137381;27;20034;-87
2022/09/28 08:33:00;;;;;;;18.40;10.20;;;;;;;7.87;100.00;99576.28;5118723;27;20031;-87
2022/09/28 08:35:25;;;;;;;18.97;10.70;;;;;;;7.92;100.00;99572.88;5136778;27;20027;-86
2022/09/28 08:37:53;;;;;;;15.60;10.43;;;;;;;7.93;100.00;99579.91;5135753;27;20072;-87
2022/09/28 08:40:24;;;;;;;18.58;10.23;;;;;;;7.99;100.00;99579.84;5118267;27;20099;-87
2022/09/28 08:42:57;;;;;;;19.83;10.80;;;;;;;8.03;100.00;99572.94;5137032;27;20080;-87
2022/09/28 08:45:27;;;;;;;21.33;10.48;;;;;;;8.09;100.00;99582.00;5135826;27;20098;-87
2022/09/28 08:50:51;;;;;;;13.47;8.20;;;;;;;8.17;100.00;99591.66;5136607;27;20468;-88
2022/09/28 08:53:37;;;;;;;16.42;8.25;;;;;;;8.24;100.00;99592.38;5135747;27;20378;-87
2022/09/28 08:56:10;;;;;;;14.20;8.15;;;;;;;8.25;100.00;99588.59;5136383;27;20065;-87
2022/09/28 08:58:42;;;;;;;16.52;8.10;;;;;;;8.25;100.00;99586.75;5136312;27;20467;-87
2022/09/28 09:01:15;;;;;;;14.00;7.90;;;;;;;8.35;100.00;99590.75;5134987;27;20090;-86
2022/09/28 09:03:44;;;;;;;11.03;7.17;;;;;;;8.46;100.00;99599.97;5136580;27;20490;-88
2022/09/28 09:06:51;;;;;;;19.00;8.90;;;;;;;8.53;100.00;99590.72;5135160;27;20114;-87
2022/09/28 09:09:50;;;;;;;13.65;8.52;;;;;;;8.70;100.00;99608.94;5135129;27;20474;-86
2022/09/28 09:12:15;;;;;;;12.68;8.15;;;;;;;8.79;100.00;99599.44;5135131;27;20493;-87
2022/09/28 09:15:06;;;;;;;16.43;8.10;;;;;;;8.92;100.00;99599.19;5134716;27;20027;-87
2022/09/28 09:17:38;;;;;;;16.60;9.10;;;;;;;9.12;100.00;99608.81;5135300;27;20031;-87
2022/09/28 09:20:36;;;;;;;11.43;8.10;;;;;;;9.34;100.00;99600.91;5136447;27;20482;-87
2022/09/28 09:23:27;;;;;;;13.53;8.83;;;;;;;9.60;100.00;99606.91;5117061;27;20039;-87
2022/09/28 09:25:59;;;;;;;13.05;6.45;;;;;;;9.71;100.00;99616.03;5136225;27;20099;-87
2022/09/28 09:28:46;;;;;;;10.55;6.00;;;;;;;9.75;100.00;99614.50;5134749;27;20020;-87
2022/09/28 09:31:42;;;;;;;11.60;5.95;;;;;;;9.88;100.00;99610.69;5134769;27;20035;-87
2022/09/28 09:34:27;;;;;;;8.35;5.38;;;;;;;9.92;100.00;99619.97;5133845;27;20027;-88
2022/09/28 09:37:34;;;;;;;6.73;4.07;;;;;;;9.95;100.00;99619.50;5134815;27;20493;-86
2022/09/28 09:40:02;;;;;;;7.03;4.00;;;;;;;10.01;100.00;99618.53;5135875;27;20518;-86
2022/09/28 09:42:43;;;;;;;5.30;4.45;;;;;;;10.02;100.00;99622.88;5135038;27;20142;-86
2022/09/28 09:45:20;;;;;;;9.80;4.38;;;;;;;10.13;100.00;99615.78;5136049;27;20058;-87
2022/09/28 09:47:54;;;;;;;6.28;4.38;;;;;;;10.23;100.00;99623.25;5134469;27;20100;-86
2022/09/28 09:50:28;;;;;;;7.67;4.47;;;;;;;10.35;100.00;99630.31;5135616;27;20023;-87
2022/09/28 09:52:57;;;;;;;7.78;4.43;;;;;;;10.36;100.00;99623.00;5134630;27;20482;-86
2022/09/28 09:55:28;;;;;;;7.72;4.70;;;;;;;10.39;100.00;99627.13;5134032;27;20062;-86
2022/09/28 09:58:02;;;;;;;12.35;4.20;;;;;;;10.39;100.00;99617.06;5133902;27;20050;-86
2022/09/28 10:00:31;;;;;;;7.00;3.17;;;;;;;10.45;100.00;99623.41;5149336;27;20054;-87
2022/09/28 10:02:59;;;;;;;10.70;3.57;;;;;;;10.49;100.00;99627.28;5155693;27;20079;-87
2022/09/28 10:05:28;;;;;;;8.93;3.20;;;;;;;10.54;100.00;99624.69;5155645;27;20466;-86
2022/09/28 10:07:56;;;;;;;6.97;3.47;;;;;;;10.58;100.00;99619.59;5137844;27;20027;-86
2022/09/28 10:10:29;;;;;;;4.50;3.60;;;;;;;10.63;100.00;99627.78;5155736;27;20058;-86
2022/09/28 10:12:55;;;;;;;8.93;3.72;;;;;;;10.67;100.00;99618.09;5137078;27;20023;-87
2022/09/28 10:15:29;;;;;;;6.23;3.97;;;;;;;11.08;100.00;99624.16;5155739;27;20450;-87
2022/09/28 10:17:59;;;;;;;7.13;3.55;;;;;;;11.32;100.00;99616.63;5136865;27;20427;-87
2022/09/28 10:20:33;;;;;;;5.57;3.17;;;;;;;11.42;100.00;99621.38;5155708;27;20030;-86
2022/09/28 10:23:02;;;;;;;6.38;2.90;;;;;;;11.63;100.00;99613.50;5137222;27;20027;-87
2022/09/28 10:25:35;;;;;;;5.33;3.30;;;;;;;12.03;98.26;99617.81;5137626;27;20458;-86
2022/09/28 10:28:05;;;;;;;8.30;3.53;;;;;;;12.37;95.08;99614.91;5156137;27;20034;-86
2022/09/28 10:30:43;;;;;;;5.50;2.90;;;;;;;12.66;92.15;99618.16;5136876;27;20074;-86
2022/09/28 10:33:31;;;;;;;6.07;2.80;;;;;;;12.74;93.83;99619.56;5137919;27;20030;-87
2022/09/28 10:35:59;;;;;;;4.13;2.75;;;;;;;12.55;90.60;99617.25;5136796;27;20054;-86
2022/09/28 10:38:25;;;;;;;8.17;3.07;;;;;;;12.49;93.33;99609.28;5136583;27;20386;-87
2022/09/28 10:40:56;;;;;;;4.32;3.22;;;;;;;12.87;93.88;99621.03;5136737;27;20022;-87
2022/09/28 10:43:35;;;;;;;4.53;2.90;;;;;;;12.97;91.83;99608.31;5137647;27;20038;-86
2022/09/28 10:46:09;;;;;;;6.18;3.15;;;;;;;12.92;90.12;99597.41;5135821;27;20019;-87
2022/09/28 10:49:01;;;;;;;6.33;3.40;;;;;;;13.03;90.47;99609.16;5137373;27;20049;-86
2022/09/28 10:51:43;;;;;;;6.03;2.90;;;;;;;13.07;90.84;99612.22;5137051;27;20037;-86
2022/09/28 10:54:17;;;;;;;4.38;2.38;;;;;;;13.07;86.95;99618.47;5137465;27;20052;-88
2022/09/28 10:56:47;;;;;;;7.32;2.33;;;;;;;13.13;87.91;99597.53;5136728;27;20054;-87
2022/09/28 10:59:23;;;;;;;4.85;2.47;;;;;;;13.32;86.41;99611.53;5136456;27;20075;-88
2022/09/28 11:01:55;;;;;;;2.73;2.00;;;;;;;13.85;83.29;99615.09;5136187;27;20088;-88
2022/09/28 11:04:25;;;;;;;4.35;2.05;;;;;;;15.10;81.86;99600.47;5137534;27;20033;-87
2022/09/28 11:06:51;;;;;;;4.60;2.25;;;;;;;16.97;72.30;99604.72;5136638;27;20527;-88
2022/09/28 11:09:30;;;;;;;4.95;1.98;;;;;;;17.55;69.84;99598.34;5136577;27;20130;-87
2022/09/28 11:12:00;;;;;;;4.47;2.10;;;;;;;19.38;67.40;99594.19;5136239;27;20118;-87
2022/09/28 11:14:37;;;;;;;3.28;1.50;;;;;;;21.48;58.17;99593.97;5136191;27;20113;-87
2022/09/28 11:17:32;;;;;;;2.70;1.13;;;;;;;22.89;57.57;99587.44;5136821;27;20474;-88
2022/09/28 11:20:26;;;;;;;2.30;1.20;;;;;;;21.51;58.44;99590.59;5136807;27;20023;-88
2022/09/28 11:22:55;;;;;;;3.85;1.30;;;;;;;19.61;55.42;99595.13;5136606;27;20481;-86
2022/09/28 11:25:24;;;;;;;3.17;1.40;;;;;;;18.48;57.91;99591.63;5136359;27;20088;-88
2022/09/28 11:27:50;;;;;;;5.65;1.70;;;;;;;17.51;61.21;99598.13;5137064;27;20026;-87
2022/09/28 11:30:42;;;;;;;3.42;1.30;;;;;;;17.51;65.79;99594.56;5136439;27;20110;-88
2022/09/28 11:33:28;;;;;;;1.80;1.23;;;;;;;17.28;65.07;99599.75;5155141;27;20455;-89
2022/09/28 11:36:12;;;;;;;2.28;1.40;;;;;;;16.60;68.60;99595.16;5137193;27;20034;-88
2022/09/28 11:38:55;;;;;;;5.85;2.53;;;;;;;15.82;69.66;99596.75;5137296;27;20093;-88
2022/09/28 11:41:56;;;;;;;3.28;1.50;;;;;;;15.51;70.67;99596.84;5135888;27;20037;-87
2022/09/28 11:44:45;;;;;;;3.45;1.77;;;;;;;16.45;73.90;99596.09;5136020;27;20127;-87
2022/09/28 11:47:36;;;;;;;3.30;2.10;;;;;;;19.90;61.42;99586.56;5136466;27;20478;-88
2022/09/28 11:50:24;;;;;;;6.68;2.33;;;;;;;22.59;59.12;99586.53;5136931;27;20109;-87
2022/09/28 11:53:01;;;;;;;2.58;2.00;;;;;;;23.79;46.25;99587.59;5136385;27;20015;-87
2022/09/28 11:55:49;;;;;;;5.97;2.20;;;;;;;21.24;56.84;99591.59;5136216;27;20034;-87
2022/09/28 11:58:50;;;;;;;4.15;2.38;;;;;;;19.27;61.82;99583.41;5140161;27;20078;-87